Time;durP1;ratioP1;P1;durP2;ratioP2;P2;SDS_P1;SDS_P2;PMS_P1;PMS_P2;Temp;Humidity;BMP_temperature;BMP_pressure;BME280_temperature;BME280_humidity;BME280_pressure;Samples;Min_cycle;Max_cycle;Signal;HPM_P1;HPM_P2
2021/05/24 02:19:36;;;;;;;3.40;3.10;;;;;;;7.59;100.00;100885.00;20891864;27;20544;-59
2021/05/24 03:39:20;;;;;;;2.70;2.20;;;;;;;14.89;83.91;100978.44;20814492;28;20588;-59
2021/05/24 03:59:16;;;;;;;2.53;2.30;;;;;;;18.16;69.13;101010.16;20980283;27;20572;-60
2021/05/24 04:09:18;;;;;;;3.13;2.40;;;;;;;19.00;65.94;101019.09;20965589;28;20253;-61
2021/05/24 04:29:14;;;;;;;4.73;2.23;;;;;;;18.81;67.25;101019.88;20815659;28;20614;-60
2021/05/24 04:39:14;;;;;;;2.40;2.20;;;;;;;18.15;69.42;101030.06;20802129;28;20223;-60
2021/05/24 04:49:16;;;;;;;2.77;2.37;;;;;;;17.63;69.84;101026.31;20773470;28;20235;-62
2021/05/24 04:59:16;;;;;;;3.20;2.60;;;;;;;17.24;71.66;101024.16;20740035;28;20734;-60
2021/05/24 05:09:17;;;;;;;2.87;2.63;;;;;;;16.81;70.35;101032.09;20724596;28;20228;-60
2021/05/24 05:19:17;;;;;;;3.70;2.50;;;;;;;16.10;70.64;101028.59;20782682;28;20216;-60
2021/05/24 05:49:11;;;;;;;3.17;2.87;;;;;;;14.76;78.72;101027.69;20944441;27;20332;-59
2021/05/24 05:59:11;;;;;;;5.23;2.97;;;;;;;14.77;80.75;101036.59;20747904;28;20227;-61
2021/05/24 06:09:12;;;;;;;3.53;3.10;;;;;;;14.82;82.12;101053.28;20711464;28;20230;-60
2021/05/24 06:19:14;;;;;;;3.20;3.00;;;;;;;15.09;83.08;101061.22;20735795;28;20220;-65
2021/05/24 07:29:10;;;;;;;1.47;1.13;;;;;;;17.20;68.98;101103.59;21035584;27;20530;-65
2021/05/24 07:39:11;;;;;;;1.27;1.17;;;;;;;17.47;67.82;101109.50;21036139;28;20228;-65
2021/05/24 07:59:06;;;;;;;1.00;0.90;;;;;;;18.33;65.26;101106.88;20781761;27;20582;-65
2021/05/24 08:19:02;;;;;;;0.80;0.80;;;;;;;19.95;61.18;101111.63;21038228;27;20613;-66
2021/05/24 08:29:03;;;;;;;0.97;0.70;;;;;;;20.25;60.08;101116.97;21037580;27;20367;-65
2021/05/24 08:39:05;;;;;;;0.70;0.63;;;;;;;20.43;58.66;101112.56;21015846;27;20223;-65
2021/05/24 08:49:06;;;;;;;1.00;0.90;;;;;;;21.15;57.63;101136.44;21037567;27;20210;-66
2021/05/24 08:59:07;;;;;;;1.53;0.87;;;;;;;22.06;54.22;101114.94;21018988;27;20225;-66
2021/05/24 09:09:12;;;;;;;0.70;0.70;;;;;;;22.67;51.88;101117.75;21032845;27;20301;-66
2021/05/24 09:19:18;;;;;;;0.60;0.60;;;;;;;23.02;51.11;101097.81;21022074;27;20871;-66
2021/05/24 09:29:23;;;;;;;1.03;0.67;;;;;;;23.57;51.53;101092.84;20975414;27;20413;-66
2021/05/24 09:39:30;;;;;;;0.70;0.70;;;;;;;23.64;48.78;101071.25;20971820;28;20702;-66
2021/05/24 09:49:31;;;;;;;0.97;0.90;;;;;;;23.32;49.70;101071.91;20960976;28;20222;-66
2021/05/24 09:59:34;;;;;;;0.70;0.70;;;;;;;22.71;51.73;101069.28;20999209;28;20218;-66
2021/05/24 10:09:36;;;;;;;1.47;0.90;;;;;;;22.47;51.70;101062.66;20954381;28;20242;-66
2021/05/24 10:19:36;;;;;;;0.80;0.77;;;;;;;22.91;50.20;101058.09;20974887;28;20233;-65
2021/05/24 10:29:39;;;;;;;1.70;0.93;;;;;;;23.00;48.28;101056.28;20952148;28;20223;-66
2021/05/24 10:39:50;;;;;;;0.67;0.67;;;;;;;23.32;48.60;101061.88;20953186;28;20664;-66
2021/05/24 10:50:05;;;;;;;1.97;0.90;;;;;;;23.67;46.67;101054.56;20956766;28;20222;-66
2021/05/24 11:00:13;;;;;;;0.97;0.80;;;;;;;24.20;45.35;101036.94;20965539;28;20351;-65
2021/05/24 11:10:18;;;;;;;1.20;1.10;;;;;;;24.98;45.27;101034.56;20962291;28;20239;-65
2021/05/24 11:20:41;;;;;;;0.60;0.53;;;;;;;25.72;40.79;101049.69;20957510;28;20234;-64
2021/05/24 11:30:42;;;;;;;1.50;0.60;;;;;;;26.49;44.14;101045.06;20967056;28;20246;-65
2021/05/24 11:40:43;;;;;;;1.77;0.70;;;;;;;26.49;43.62;101054.13;20948668;28;20725;-64
2021/05/24 11:50:50;;;;;;;1.33;0.80;;;;;;;26.42;42.44;101030.41;20967654;28;20215;-65
2021/05/24 12:00:51;;;;;;;2.30;0.93;;;;;;;26.35;43.79;101029.44;20946518;28;20921;-64
2021/05/24 12:10:59;;;;;;;0.50;0.50;;;;;;;26.33;40.56;101015.06;20965613;28;20313;-64
2021/05/24 12:21:02;;;;;;;0.90;0.77;;;;;;;26.13;43.73;100999.13;20948697;28;20237;-65
2021/05/24 12:31:03;;;;;;;0.60;0.60;;;;;;;26.23;42.77;100981.59;20960632;28;20218;-65
2021/05/24 12:41:04;;;;;;;0.63;0.60;;;;;;;26.62;42.11;100971.34;20953084;28;20221;-65
2021/05/24 12:51:13;;;;;;;1.83;0.73;;;;;;;26.76;39.58;100964.19;20954382;28;20234;-65
2021/05/24 13:01:31;;;;;;;1.00;0.90;;;;;;;26.80;38.28;100949.09;20969400;28;20214;-65
2021/05/24 13:11:58;;;;;;;0.50;0.50;;;;;;;26.51;38.90;100941.69;21017436;28;20230;-65
2021/05/24 13:32:26;;;;;;;0.50;0.50;;;;;;;24.78;42.50;100953.00;20957459;28;20234;-65
2021/05/24 13:42:27;;;;;;;1.10;0.70;;;;;;;24.17;43.63;100926.31;20977562;28;20219;-64
2021/05/24 13:52:28;;;;;;;1.00;0.70;;;;;;;24.31;44.05;100903.81;20955861;28;20234;-65
2021/05/24 14:02:28;;;;;;;0.60;0.60;;;;;;;23.83;44.84;100885.59;20975975;28;20226;-64
2021/05/24 14:12:29;;;;;;;1.40;0.60;;;;;;;24.24;45.00;100888.34;20958750;28;20230;-65
2021/05/24 14:22:29;;;;;;;0.90;0.67;;;;;;;24.30;44.41;100866.66;20969657;28;20219;-64
2021/05/24 14:32:30;;;;;;;0.70;0.70;;;;;;;24.14;44.68;100849.47;20965361;28;20463;-65
2021/05/24 14:42:30;;;;;;;0.50;0.50;;;;;;;23.83;44.97;100842.00;20960985;28;20267;-64
2021/05/24 14:52:31;;;;;;;0.77;0.70;;;;;;;23.19;44.95;100824.56;20971283;28;20218;-64
2021/05/24 15:02:32;;;;;;;0.87;0.63;;;;;;;23.08;45.30;100824.03;20951074;28;20276;-64
2021/05/24 15:12:32;;;;;;;0.60;0.60;;;;;;;23.33;45.38;100810.28;20970889;28;20627;-64
2021/05/24 15:22:33;;;;;;;1.73;0.50;;;;;;;23.68;45.20;100811.00;20946322;28;20223;-64
2021/05/24 15:32:34;;;;;;;0.93;0.50;;;;;;;23.40;45.68;100806.91;20969154;28;20526;-64
2021/05/24 15:42:35;;;;;;;1.17;0.90;;;;;;;22.95;45.25;100789.97;20983231;28;20573;-64
2021/05/24 15:52:37;;;;;;;2.53;0.67;;;;;;;22.10;45.53;100776.53;20963263;28;20222;-63
2021/05/24 16:02:38;;;;;;;0.73;0.73;;;;;;;21.73;46.80;100765.94;20957866;28;20215;-65
2021/05/24 16:12:38;;;;;;;0.73;0.70;;;;;;;21.07;46.81;100742.81;20954825;28;20222;-64
2021/05/24 16:22:44;;;;;;;0.80;0.80;;;;;;;20.87;48.40;100724.13;20964688;28;20787;-64
2021/05/24 16:32:44;;;;;;;0.87;0.87;;;;;;;20.53;48.95;100694.97;20950523;28;20222;-64
2021/05/24 16:42:45;;;;;;;0.93;0.90;;;;;;;20.64;48.52;100688.50;20981296;28;20345;-63
2021/05/24 16:52:45;;;;;;;1.17;0.80;;;;;;;20.79;48.89;100681.50;20960387;28;20219;-65
2021/05/24 17:12:46;;;;;;;2.07;0.87;;;;;;;21.88;47.78;100672.78;20832031;27;20638;-66
2021/05/24 17:22:47;;;;;;;0.60;0.60;;;;;;;20.94;48.49;100665.50;20816929;28;20220;-66
2021/05/24 17:42:44;;;;;;;2.10;0.90;;;;;;;19.20;52.29;100660.19;20868961;27;20548;-63
2021/05/24 17:52:52;;;;;;;2.83;1.13;;;;;;;18.75;53.71;100670.72;20849817;28;20217;-63
2021/05/24 18:02:53;;;;;;;1.73;1.30;;;;;;;18.36;54.70;100660.72;20877661;28;20219;-64
2021/05/24 18:12:54;;;;;;;1.30;1.20;;;;;;;18.06;55.38;100635.66;20873788;28;20220;-63
2021/05/24 18:22:55;;;;;;;1.40;1.27;;;;;;;17.69;56.80;100617.34;20870396;28;20224;-62
2021/05/24 18:33:00;;;;;;;2.53;1.70;;;;;;;17.35;58.50;100607.81;20848706;28;20603;-67
2021/05/24 18:43:10;;;;;;;3.33;1.80;;;;;;;17.04;59.16;100612.31;20867058;28;20650;-67
2021/05/24 18:53:19;;;;;;;1.33;1.23;;;;;;;16.71;60.20;100614.22;20793567;28;20776;-67
2021/05/24 19:23:25;;;;;;;3.47;1.80;;;;;;;15.60;65.12;100614.53;20897793;27;20544;-67
2021/05/24 20:43:32;;;;;;;2.83;2.47;;;;;;;16.15;65.10;100565.97;20866511;27;20655;-66
2021/05/24 21:33:40;;;;;;;2.70;2.50;;;;;;;16.05;66.52;100486.97;21031168;27;20714;-64
2021/05/24 21:53:38;;;;;;;2.30;2.10;;;;;;;16.07;66.92;100468.81;20942223;27;20603;-66
2021/05/24 22:43:34;;;;;;;2.10;1.90;;;;;;;15.97;68.52;100467.91;20869558;27;20633;-67
